createdAt,value
2022-08-26T00:01:35.969Z,2.30
2022-08-26T00:07:37.659Z,3.13
2022-08-26T00:13:40.229Z,2.67
2022-08-26T00:19:49.593Z,2.72
2022-08-26T00:25:54.540Z,2.55
2022-08-26T00:31:58.561Z,2.50
2022-08-26T00:38:01.794Z,3.47
2022-08-26T00:44:03.845Z,2.50
2022-08-26T00:50:10.871Z,3.00
2022-08-26T00:56:29.486Z,2.92
2022-08-26T01:02:31.388Z,2.95
2022-08-26T01:08:33.500Z,2.67
2022-08-26T01:14:36.766Z,2.60
2022-08-26T01:20:53.587Z,2.80
2022-08-26T01:27:07.068Z,2.75
2022-08-26T01:33:15.009Z,2.60
2022-08-26T01:39:18.108Z,2.53
2022-08-26T01:45:27.166Z,2.38
2022-08-26T01:51:30.320Z,2.22
2022-08-26T01:57:32.835Z,2.83
2022-08-26T02:03:38.719Z,2.90
2022-08-26T02:09:44.092Z,3.05
2022-08-26T02:15:46.819Z,3.13
2022-08-26T02:21:51.935Z,2.80
2022-08-26T02:27:54.709Z,2.90
2022-08-26T02:34:11.779Z,2.97
2022-08-26T02:40:16.160Z,3.58
2022-08-26T02:46:21.550Z,2.65
2022-08-26T02:52:29.800Z,3.10
2022-08-26T02:58:31.833Z,3.13
2022-08-26T03:04:33.938Z,3.00
2022-08-26T03:10:35.608Z,3.15
2022-08-26T03:16:38.147Z,2.65
2022-08-26T03:22:40.290Z,3.63
2022-08-26T03:29:02.157Z,3.03
2022-08-26T03:35:04.793Z,3.58
2022-08-26T03:41:09.139Z,3.35
2022-08-26T03:47:11.146Z,3.33
2022-08-26T03:53:13.421Z,3.45
2022-08-26T03:59:15.135Z,3.30
2022-08-26T04:05:19.632Z,3.15
2022-08-26T04:11:23.455Z,3.30
2022-08-26T04:17:26.305Z,3.60
2022-08-26T04:23:27.929Z,4.22
2022-08-26T04:29:30.091Z,4.78
2022-08-26T04:35:32.410Z,4.38
2022-08-26T04:41:34.235Z,4.63
2022-08-26T04:47:38.052Z,4.15
2022-08-26T04:53:39.793Z,4.82
2022-08-26T04:59:42.486Z,4.15
2022-08-26T05:05:46.401Z,5.30
2022-08-26T05:11:52.027Z,5.10
2022-08-26T05:17:54.074Z,5.07
2022-08-26T05:23:57.049Z,5.85
2022-08-26T05:29:58.822Z,5.55
2022-08-26T05:36:07.898Z,5.55
2022-08-26T05:42:11.252Z,6.05
2022-08-26T05:48:16.542Z,6.53
2022-08-26T05:54:21.758Z,9.18
2022-08-26T06:00:24.292Z,10.88
2022-08-26T06:06:32.918Z,8.88
2022-08-26T06:12:34.680Z,8.43
2022-08-26T06:18:39.659Z,7.28
2022-08-26T06:24:59.874Z,5.93
2022-08-26T06:31:03.231Z,6.35
2022-08-26T06:37:06.684Z,5.60
2022-08-26T06:43:09.574Z,5.68
2022-08-26T06:49:12.482Z,5.30
2022-08-26T06:55:14.322Z,6.07
2022-08-26T07:01:23.398Z,5.22
2022-08-26T07:07:25.108Z,5.63
2022-08-26T07:13:30.762Z,5.53
2022-08-26T07:19:32.700Z,5.15
2022-08-26T07:25:37.882Z,4.95
2022-08-26T07:31:42.368Z,5.10
2022-08-26T07:37:44.659Z,5.68
2022-08-26T07:43:46.352Z,4.53
2022-08-26T07:49:48.285Z,5.30
2022-08-26T07:55:54.490Z,4.63
2022-08-26T08:02:02.178Z,4.85
2022-08-26T08:08:26.278Z,4.70
2022-08-26T08:14:29.838Z,5.38
2022-08-26T08:20:33.301Z,4.45
2022-08-26T08:26:35.707Z,4.53
2022-08-26T08:32:43.814Z,4.65
2022-08-26T08:38:45.534Z,5.25
2022-08-26T08:44:52.082Z,4.82
2022-08-26T08:51:04.343Z,4.43
2022-08-26T08:57:17.485Z,4.35
2022-08-26T09:03:56.915Z,4.45
2022-08-26T09:10:22.853Z,4.97
2022-08-26T09:17:04.947Z,5.35
2022-08-26T09:23:06.934Z,5.25
2022-08-26T09:29:31.437Z,4.95
2022-08-26T09:35:36.095Z,5.32
2022-08-26T09:41:37.818Z,5.65
2022-08-26T09:47:54.400Z,5.72
2022-08-26T09:53:59.648Z,5.55
2022-08-26T10:00:02.308Z,4.93
2022-08-26T10:06:26.712Z,5.43
2022-08-26T10:12:34.260Z,5.20
2022-08-26T10:18:42.263Z,5.03
2022-08-26T10:24:53.219Z,4.90
2022-08-26T10:31:21.479Z,5.63
2022-08-26T10:37:43.491Z,5.53
2022-08-26T10:43:52.346Z,5.38
2022-08-26T10:49:59.989Z,5.20
2022-08-26T10:56:27.555Z,6.07
2022-08-26T11:02:48.301Z,4.95
2022-08-26T11:08:59.598Z,5.80
2022-08-26T11:15:24.649Z,4.95
2022-08-26T11:21:51.919Z,5.70
2022-08-26T11:28:00.886Z,5.18
2022-08-26T11:34:08.699Z,5.53
2022-08-26T11:40:20.761Z,4.88
2022-08-26T11:46:28.748Z,5.95
2022-08-26T11:52:30.490Z,5.50
2022-08-26T11:58:35.513Z,4.60
2022-08-26T12:04:41.671Z,5.63
2022-08-26T12:10:43.507Z,5.90
2022-08-26T12:16:45.806Z,4.68
2022-08-26T12:22:48.124Z,4.90
2022-08-26T12:29:02.395Z,5.53
2022-08-26T12:35:22.068Z,5.88
2022-08-26T12:41:53.763Z,4.88
2022-08-26T12:48:02.676Z,4.80
2022-08-26T12:54:06.898Z,4.85
2022-08-26T13:00:29.587Z,4.78
2022-08-26T13:06:31.647Z,4.45
2022-08-26T13:12:37.467Z,4.97
2022-08-26T13:18:39.515Z,5.05
2022-08-26T13:24:43.798Z,5.32
2022-08-26T13:30:48.259Z,4.47
2022-08-26T13:36:52.056Z,4.80
2022-08-26T13:42:53.753Z,4.22
2022-08-26T13:48:56.845Z,4.20
2022-08-26T13:55:00.468Z,5.18
2022-08-26T14:01:02.408Z,5.40
2022-08-26T14:07:04.543Z,4.63
2022-08-26T14:13:07.623Z,3.88
2022-08-26T14:19:09.631Z,4.43
2022-08-26T14:25:13.555Z,4.10
2022-08-26T14:31:15.479Z,4.95
2022-08-26T14:37:18.077Z,4.03
2022-08-26T14:43:19.819Z,4.70
2022-08-26T14:49:23.486Z,5.00
2022-08-26T14:55:26.268Z,4.55
2022-08-26T15:01:30.958Z,5.60
2022-08-26T15:07:33.139Z,5.10
2022-08-26T15:13:35.758Z,5.18
2022-08-26T15:19:38.776Z,5.10
2022-08-26T15:25:43.624Z,4.88
2022-08-26T15:31:45.847Z,4.72
2022-08-26T15:37:47.626Z,5.50
2022-08-26T15:43:49.820Z,5.28
2022-08-26T15:49:51.500Z,5.13
2022-08-26T15:55:55.307Z,5.25
2022-08-26T16:02:00.538Z,5.22
2022-08-26T16:08:03.629Z,5.25
2022-08-26T16:14:05.821Z,4.45
2022-08-26T16:20:08.419Z,5.50
2022-08-26T16:26:15.844Z,5.60
2022-08-26T16:32:17.707Z,5.10
2022-08-26T16:38:19.465Z,5.20
2022-08-26T16:44:22.297Z,4.78
2022-08-26T16:50:24.191Z,5.07
2022-08-26T16:56:33.449Z,4.87
2022-08-26T17:02:36.059Z,4.43
2022-08-26T17:08:39.466Z,5.55
2022-08-26T17:14:41.384Z,6.72
2022-08-26T17:20:45.116Z,7.20
2022-08-26T17:26:50.033Z,8.57
2022-08-26T17:32:55.326Z,6.63
2022-08-26T17:38:59.830Z,6.47
2022-08-26T17:45:01.569Z,6.38
2022-08-26T17:51:13.655Z,7.97
2022-08-26T17:57:15.470Z,6.47
2022-08-26T18:03:19.237Z,8.93
2022-08-26T18:09:21.245Z,9.55
2022-08-26T18:15:23.214Z,8.90
2022-08-26T18:21:27.311Z,9.57
2022-08-26T18:27:29.019Z,9.77
2022-08-26T18:33:31.157Z,10.70
2022-08-26T18:39:33.010Z,9.13
2022-08-26T18:45:34.795Z,9.32
2022-08-26T18:51:38.252Z,9.10
2022-08-26T18:57:40.141Z,10.40
2022-08-26T19:03:42.696Z,9.40
2022-08-26T19:09:44.408Z,9.57
2022-08-26T19:15:46.969Z,9.02
2022-08-26T19:21:48.834Z,9.18
2022-08-26T19:27:50.599Z,9.73
2022-08-26T19:33:52.740Z,8.43
2022-08-26T19:39:54.484Z,7.63
2022-08-26T19:45:56.404Z,9.10
2022-08-26T19:51:58.848Z,8.40
2022-08-26T19:58:00.733Z,10.18
2022-08-26T20:04:02.936Z,9.35
2022-08-26T20:10:07.058Z,10.05
2022-08-26T20:16:11.613Z,9.63
2022-08-26T20:22:13.923Z,9.63
2022-08-26T20:28:15.624Z,9.20
2022-08-26T20:34:18.870Z,8.90
2022-08-26T20:40:21.423Z,8.93
2022-08-26T20:46:25.419Z,7.65
2022-08-26T20:52:27.971Z,7.85
2022-08-26T20:58:30.059Z,8.30
2022-08-26T21:04:31.940Z,7.47
2022-08-26T21:10:33.748Z,7.30
2022-08-26T21:16:37.224Z,7.55
2022-08-26T21:22:39.083Z,7.80
2022-08-26T21:28:43.741Z,7.68
2022-08-26T21:34:45.460Z,6.93
2022-08-26T21:41:00.814Z,7.50
2022-08-26T21:47:03.510Z,7.43
2022-08-26T21:53:05.783Z,6.43
2022-08-26T21:59:08.387Z,7.38
2022-08-26T22:05:10.400Z,6.63
2022-08-26T22:11:12.280Z,6.97
2022-08-26T22:17:14.080Z,6.40
2022-08-26T22:23:15.782Z,7.03
2022-08-26T22:29:18.793Z,5.43
2022-08-26T22:35:28.887Z,5.82
2022-08-26T22:41:33.442Z,6.40
2022-08-26T22:47:35.911Z,6.30
2022-08-26T22:53:39.319Z,5.70
2022-08-26T22:59:44.111Z,6.20
2022-08-26T23:05:48.064Z,6.50
2022-08-26T23:11:55.002Z,5.65
2022-08-26T23:17:58.531Z,5.22
2022-08-26T23:24:01.157Z,4.68
2022-08-26T23:30:08.407Z,5.53
2022-08-26T23:36:13.593Z,5.25
2022-08-26T23:42:18.949Z,4.90
2022-08-26T23:48:21.735Z,5.55
2022-08-26T23:54:24.131Z,4.40
